createdAt,value
2019-04-05T00:00:30.982Z,57.10
2019-04-05T00:01:30.974Z,58.20
2019-04-05T00:02:30.959Z,62.50
2019-04-05T00:03:30.952Z,62.60
2019-04-05T00:04:30.938Z,63.40
2019-04-05T00:05:30.924Z,62.60
2019-04-05T00:06:30.952Z,64.00
2019-04-05T00:07:30.900Z,65.20
2019-04-05T00:08:30.892Z,66.00
2019-04-05T00:09:30.882Z,65.90
2019-04-05T00:10:30.870Z,64.80
2019-04-05T00:11:30.886Z,65.00
2019-04-05T00:12:30.848Z,67.10
2019-04-05T00:13:30.840Z,68.80
2019-04-05T00:14:30.822Z,65.00
2019-04-05T00:15:30.836Z,65.60
2019-04-05T00:16:30.808Z,69.50
2019-04-05T00:17:30.824Z,67.10
2019-04-05T00:18:30.784Z,67.50
2019-04-05T00:19:30.783Z,69.30
2019-04-05T00:20:30.759Z,67.70
2019-04-05T00:21:30.748Z,68.10
2019-04-05T00:22:30.734Z,67.90
2019-04-05T00:23:30.769Z,70.60
2019-04-05T00:24:30.720Z,70.10
2019-04-05T00:25:30.703Z,70.40
2019-04-05T00:26:30.698Z,71.30
2019-04-05T00:27:30.689Z,70.00
2019-04-05T00:28:30.677Z,69.80
2019-04-05T00:29:30.686Z,68.10
2019-04-05T00:30:30.649Z,68.50
2019-04-05T00:31:30.645Z,70.50
2019-04-05T00:32:31.592Z,70.30
2019-04-05T00:33:30.625Z,70.60
2019-04-05T00:34:30.608Z,69.10
2019-04-05T00:35:30.621Z,69.30
2019-04-05T00:36:30.579Z,72.20
2019-04-05T00:37:30.580Z,71.30
2019-04-05T00:38:30.559Z,69.40
2019-04-05T00:39:30.552Z,70.60
2019-04-05T00:40:30.574Z,68.70
2019-04-05T00:41:32.949Z,67.90
2019-04-05T00:42:30.549Z,69.10
2019-04-05T00:43:30.514Z,67.00
2019-04-05T00:44:30.499Z,68.10
2019-04-05T00:45:30.498Z,67.30
2019-04-05T00:46:30.475Z,68.80
2019-04-05T00:47:30.484Z,70.10
2019-04-05T00:48:30.457Z,67.40
2019-04-05T00:49:30.442Z,66.20
2019-04-05T00:50:30.426Z,69.60
2019-04-05T00:52:29.436Z,68.10
2019-04-05T00:53:30.394Z,68.70
2019-04-05T00:54:30.384Z,70.40
2019-04-05T00:55:30.383Z,68.30
2019-04-05T00:56:30.370Z,67.80
2019-04-05T00:57:30.359Z,66.90
2019-04-05T00:58:30.345Z,66.80
2019-04-05T00:59:30.329Z,67.00
2019-04-05T01:00:30.322Z,69.00
2019-04-05T01:01:30.318Z,68.40
2019-04-05T01:02:30.297Z,67.70
2019-04-05T01:03:30.329Z,68.90
2019-04-05T01:04:30.279Z,68.90
2019-04-05T01:05:30.272Z,67.90
2019-04-05T01:06:30.260Z,69.60
2019-04-05T01:07:30.242Z,68.30
2019-04-05T01:08:30.237Z,69.80
2019-04-05T01:09:30.219Z,70.80
2019-04-05T01:10:30.228Z,70.50
2019-04-05T01:11:30.207Z,69.50
2019-04-05T01:12:32.005Z,69.10
2019-04-05T01:13:30.175Z,70.90
2019-04-05T01:14:30.170Z,70.40
2019-04-05T01:15:40.158Z,70.30
2019-04-05T01:16:30.148Z,68.50
2019-04-05T01:17:30.134Z,70.10
2019-04-05T01:18:33.048Z,68.70
2019-04-05T01:19:30.114Z,70.00
2019-04-05T01:20:30.127Z,69.40
2019-04-05T01:21:30.094Z,68.40
2019-04-05T01:22:30.085Z,69.00
2019-04-05T01:23:30.071Z,68.90
2019-04-05T01:24:30.055Z,70.70
2019-04-05T01:25:30.059Z,67.70
2019-04-05T01:26:30.039Z,70.50
2019-04-05T01:27:30.027Z,69.90
2019-04-05T01:28:30.079Z,68.60
2019-04-05T01:29:30.000Z,70.00
2019-04-05T01:30:29.993Z,67.30
2019-04-05T01:31:32.546Z,69.40
2019-04-05T01:32:32.543Z,68.70
2019-04-05T01:33:29.972Z,66.10
2019-04-05T01:34:29.985Z,69.30
2019-04-05T01:35:29.939Z,70.60
2019-04-05T01:36:29.936Z,72.90
2019-04-05T01:37:29.933Z,71.50
2019-04-05T01:38:29.901Z,69.80
2019-04-05T01:39:29.891Z,68.00
2019-04-05T01:40:29.905Z,69.20
2019-04-05T01:41:29.873Z,68.10
2019-04-05T01:42:29.874Z,67.30
2019-04-05T01:43:29.846Z,70.60
2019-04-05T01:44:29.847Z,67.80
2019-04-05T01:45:29.839Z,69.30
2019-04-05T01:46:29.817Z,69.40
2019-04-05T01:47:29.805Z,70.40
2019-04-05T01:48:29.789Z,72.20
2019-04-05T01:49:29.780Z,70.80
2019-04-05T01:50:29.885Z,70.00
2019-04-05T01:51:29.775Z,69.30
2019-04-05T01:52:29.754Z,70.30
2019-04-05T01:53:29.745Z,70.00
2019-04-05T01:54:29.722Z,68.60
2019-04-05T01:55:29.721Z,67.80
2019-04-05T01:56:29.729Z,69.10
2019-04-05T01:57:29.694Z,68.80
2019-04-05T01:58:29.689Z,69.60
2019-04-05T01:59:29.685Z,70.20
2019-04-05T02:00:29.665Z,69.60
2019-04-05T02:01:29.655Z,67.80
2019-04-05T02:02:29.663Z,71.30
2019-04-05T02:03:30.543Z,69.70
2019-04-05T02:04:29.619Z,68.60
2019-04-05T02:05:29.607Z,69.30
2019-04-05T02:06:29.599Z,67.70
2019-04-05T02:07:29.591Z,71.20
2019-04-05T02:08:29.599Z,71.10
2019-04-05T02:09:29.563Z,69.30
2019-04-05T02:10:29.564Z,68.50
2019-04-05T02:11:29.545Z,67.50
2019-04-05T02:12:29.533Z,72.30
2019-04-05T02:13:29.525Z,68.80
2019-04-05T02:14:29.551Z,69.20
2019-04-05T02:15:29.539Z,69.10
2019-04-05T02:16:29.489Z,68.30
2019-04-05T02:17:29.475Z,69.30
2019-04-05T02:18:29.460Z,69.40
2019-04-05T02:19:29.469Z,69.60
2019-04-05T02:20:29.444Z,70.00
2019-04-05T02:21:29.435Z,68.30
2019-04-05T02:22:29.421Z,67.70
2019-04-05T02:23:29.416Z,69.50
2019-04-05T02:24:29.403Z,68.10
2019-04-05T02:25:29.417Z,67.90
2019-04-05T02:26:29.383Z,68.00
2019-04-05T02:27:29.363Z,67.20
2019-04-05T02:28:29.357Z,67.20
2019-04-05T02:29:29.353Z,67.10
2019-04-05T02:30:29.381Z,68.60
2019-04-05T02:31:29.381Z,68.30
2019-04-05T02:32:29.313Z,67.70
2019-04-05T02:33:29.300Z,66.80
2019-04-05T02:34:29.286Z,65.30
2019-04-05T02:35:29.278Z,65.60
2019-04-05T02:36:29.390Z,67.90
2019-04-05T02:37:29.265Z,68.40
2019-04-05T02:38:29.237Z,67.20
2019-04-05T02:39:29.233Z,68.00
2019-04-05T02:40:29.221Z,67.50
2019-04-05T02:41:29.235Z,67.70
2019-04-05T02:42:29.223Z,67.50
2019-04-05T02:43:29.197Z,68.10
2019-04-05T02:44:29.177Z,68.80
2019-04-05T02:45:29.166Z,69.30
2019-04-05T02:46:29.162Z,68.30
2019-04-05T02:47:29.151Z,67.80
2019-04-05T02:48:29.157Z,68.70
2019-04-05T02:49:29.132Z,66.50
2019-04-05T02:50:29.175Z,66.80
2019-04-05T02:51:29.103Z,66.80
2019-04-05T02:52:29.093Z,66.10
2019-04-05T02:53:29.078Z,68.30
2019-04-05T02:54:29.083Z,66.20
2019-04-05T02:55:29.056Z,67.60
2019-04-05T02:56:29.036Z,68.20
2019-04-05T02:57:29.047Z,67.00
2019-04-05T02:58:29.026Z,67.40
2019-04-05T02:59:29.016Z,66.20
2019-04-05T03:00:29.023Z,67.50
2019-04-05T03:01:28.980Z,66.40
2019-04-05T03:02:28.977Z,66.50
2019-04-05T03:03:28.973Z,65.90
2019-04-05T03:04:28.962Z,67.50
2019-04-05T03:05:28.965Z,66.40
2019-04-05T03:06:28.974Z,66.00
2019-04-05T03:07:28.913Z,65.40
2019-04-05T03:08:28.926Z,66.40
2019-04-05T03:09:28.902Z,65.30
2019-04-05T03:10:28.903Z,67.70
2019-04-05T03:11:28.884Z,64.90
2019-04-05T03:12:28.885Z,64.10
2019-04-05T03:13:28.852Z,65.80
2019-04-05T03:14:28.844Z,66.20
2019-04-05T03:15:28.829Z,65.70
2019-04-05T03:16:40.174Z,66.40
2019-04-05T03:17:28.807Z,63.10
2019-04-05T03:18:28.831Z,64.00
2019-04-05T03:19:28.786Z,64.10
2019-04-05T03:20:29.578Z,63.90
2019-04-05T03:21:28.762Z,63.40
2019-04-05T03:22:28.758Z,63.70
2019-04-05T03:23:28.780Z,63.50
2019-04-05T03:24:28.729Z,65.30
2019-04-05T03:25:28.743Z,65.60
2019-04-05T03:26:28.707Z,63.80
2019-04-05T03:27:28.707Z,63.20
2019-04-05T03:28:28.688Z,66.10
2019-04-05T03:29:28.682Z,67.70
2019-04-05T03:30:28.689Z,67.10
2019-04-05T03:31:29.549Z,65.20
2019-04-05T03:32:31.511Z,65.20
2019-04-05T03:33:28.635Z,66.80
2019-04-05T03:34:31.522Z,65.30
2019-04-05T03:35:28.616Z,68.00
2019-04-05T03:36:28.666Z,67.30
2019-04-05T03:37:28.588Z,67.70
2019-04-05T03:38:28.591Z,66.30
2019-04-05T03:39:28.572Z,67.60
2019-04-05T03:40:28.569Z,66.20
2019-04-05T03:42:27.588Z,68.50
2019-04-05T03:43:28.518Z,66.50
2019-04-05T03:44:28.525Z,66.70
2019-04-05T03:45:28.504Z,67.10
2019-04-05T03:46:29.004Z,67.70
2019-04-05T03:47:28.509Z,70.10
2019-04-05T03:48:28.467Z,69.20
2019-04-05T03:49:28.473Z,69.40
2019-04-05T03:50:28.488Z,68.80
2019-04-05T03:51:28.431Z,69.10
2019-04-05T03:52:28.433Z,71.60
2019-04-05T03:53:28.414Z,71.70
2019-04-05T03:54:28.401Z,71.50
2019-04-05T03:55:28.389Z,71.90
2019-04-05T03:56:28.416Z,69.70
2019-04-05T03:57:28.368Z,71.10
2019-04-05T03:58:28.353Z,71.40
2019-04-05T04:00:27.336Z,68.20
2019-04-05T04:01:28.324Z,72.60
2019-04-05T04:02:28.346Z,71.40
2019-04-05T04:03:28.304Z,72.00
2019-04-05T04:04:28.300Z,73.90
2019-04-05T04:05:28.285Z,70.70
2019-04-05T04:06:28.275Z,70.40
2019-04-05T04:07:29.007Z,70.90
2019-04-05T04:08:28.253Z,71.80
2019-04-05T04:09:28.246Z,71.70
2019-04-05T04:11:27.291Z,70.40
2019-04-05T04:12:28.203Z,70.00
2019-04-05T04:13:28.215Z,72.60
2019-04-05T04:14:28.188Z,69.80
2019-04-05T04:15:28.176Z,70.30
2019-04-05T04:16:28.158Z,70.00
2019-04-05T04:17:28.152Z,68.20
2019-04-05T04:18:28.135Z,70.40
2019-04-05T04:19:28.153Z,67.90
2019-04-05T04:20:28.130Z,68.20
2019-04-05T04:21:28.116Z,68.70
2019-04-05T04:22:28.098Z,68.50
2019-04-05T04:23:28.090Z,66.90
2019-04-05T04:24:28.085Z,69.60
2019-04-05T04:25:28.093Z,66.70
2019-04-05T04:26:28.056Z,67.50
2019-04-05T04:27:28.052Z,68.70
2019-04-05T04:28:28.038Z,67.70
2019-04-05T04:29:28.023Z,65.80
2019-04-05T04:30:28.011Z,69.00
2019-04-05T04:31:28.020Z,67.30
2019-04-05T04:32:27.986Z,66.50
2019-04-05T04:33:27.972Z,66.10
2019-04-05T04:34:27.971Z,67.50
2019-04-05T04:35:27.953Z,67.90
2019-04-05T04:36:27.944Z,68.60
2019-04-05T04:37:27.953Z,66.90
2019-04-05T04:38:27.930Z,66.80
2019-04-05T04:39:27.913Z,65.90
2019-04-05T04:40:27.909Z,68.50
2019-04-05T04:41:30.161Z,66.90
2019-04-05T04:42:27.926Z,67.40
2019-04-05T04:43:27.888Z,64.90
2019-04-05T04:44:30.494Z,68.10
2019-04-05T04:45:27.842Z,68.00
2019-04-05T04:46:27.832Z,66.30
2019-04-05T04:47:27.821Z,67.50
2019-04-05T04:48:27.827Z,67.60
2019-04-05T04:49:27.817Z,67.60
2019-04-05T04:50:30.486Z,65.80
2019-04-05T04:51:27.779Z,68.30
2019-04-05T04:52:27.770Z,67.00
2019-04-05T04:53:27.774Z,67.60
2019-04-05T04:54:27.758Z,69.00
2019-04-05T04:55:27.730Z,68.70
2019-04-05T04:56:27.721Z,70.50
2019-04-05T04:57:27.715Z,68.90
2019-04-05T04:58:27.703Z,68.80
2019-04-05T04:59:30.483Z,69.10
2019-04-05T05:00:27.680Z,72.30
2019-04-05T05:01:27.692Z,74.20
2019-04-05T05:02:27.664Z,71.10
2019-04-05T05:03:27.649Z,71.70
2019-04-05T05:05:26.648Z,71.80
2019-04-05T05:06:27.613Z,69.70
2019-04-05T05:07:27.604Z,70.80
2019-04-05T05:08:27.588Z,70.20
2019-04-05T05:09:27.579Z,69.60
2019-04-05T05:10:27.969Z,71.40
2019-04-05T05:11:27.559Z,70.90
2019-04-05T05:12:27.553Z,69.00
2019-04-05T05:13:27.548Z,69.30
2019-04-05T05:14:27.528Z,71.90
2019-04-05T05:15:27.573Z,71.90
2019-04-05T05:16:27.531Z,69.40
2019-04-05T05:17:37.713Z,68.80
2019-04-05T05:18:27.479Z,70.70
2019-04-05T05:19:27.479Z,70.50
2019-04-05T05:20:27.459Z,71.00
2019-04-05T05:21:27.449Z,71.40
2019-04-05T05:22:27.465Z,71.10
2019-04-05T05:23:27.446Z,69.70
2019-04-05T05:24:27.465Z,67.60
2019-04-05T05:25:27.408Z,71.40
2019-04-05T05:27:26.377Z,71.40
2019-04-05T05:28:27.978Z,70.00
2019-04-05T05:29:27.385Z,71.80
2019-04-05T05:30:27.350Z,70.70
2019-04-05T05:31:27.338Z,66.80
2019-04-05T05:32:27.337Z,68.30
2019-04-05T05:33:27.314Z,67.90
2019-04-05T05:34:27.310Z,68.60
2019-04-05T05:35:27.316Z,69.40
2019-04-05T05:36:27.287Z,67.30
2019-04-05T05:37:27.271Z,68.20
2019-04-05T05:38:27.975Z,67.80
2019-04-05T05:39:27.251Z,69.80
2019-04-05T05:40:34.796Z,67.40
2019-04-05T05:41:27.234Z,70.70
2019-04-05T05:42:27.215Z,68.90
2019-04-05T05:43:27.210Z,67.10
2019-04-05T05:44:29.975Z,70.20
2019-04-05T05:45:27.183Z,71.10
2019-04-05T05:46:27.203Z,69.20
2019-04-05T05:47:27.161Z,70.80
2019-04-05T05:48:27.171Z,68.80
2019-04-05T05:49:27.146Z,68.50
2019-04-05T05:50:27.129Z,70.80
2019-04-05T05:51:27.133Z,70.20
2019-04-05T05:52:27.509Z,70.30
2019-04-05T05:53:29.978Z,70.90
2019-04-05T05:54:27.090Z,74.20
2019-04-05T05:55:29.913Z,74.90
2019-04-05T05:56:27.065Z,70.40
2019-04-05T05:57:27.056Z,67.90
2019-04-05T05:58:27.252Z,71.50
2019-04-05T05:59:27.715Z,69.80
2019-04-05T06:00:30.260Z,71.20
2019-04-05T06:01:27.010Z,72.40
2019-04-05T06:02:27.005Z,69.20
2019-04-05T06:03:26.987Z,69.30
2019-04-05T06:04:27.003Z,69.90
2019-04-05T06:05:27.469Z,70.10
2019-04-05T06:06:26.948Z,71.00
2019-04-05T06:07:26.941Z,71.20
2019-04-05T06:08:29.229Z,69.10
2019-04-05T06:09:29.481Z,70.10
2019-04-05T06:10:26.940Z,70.00
2019-04-05T06:11:29.471Z,72.50
2019-04-05T06:12:26.906Z,68.50
2019-04-05T06:13:26.885Z,69.70
2019-04-05T06:14:26.878Z,69.10
2019-04-05T06:15:26.861Z,70.00
2019-04-05T06:16:26.874Z,67.60
2019-04-05T06:17:29.464Z,68.40
2019-04-05T06:18:26.975Z,67.60
2019-04-05T06:19:26.823Z,69.40
2019-04-05T06:20:26.804Z,68.60
2019-04-05T06:21:26.793Z,69.40
2019-04-05T06:22:28.504Z,70.30
2019-04-05T06:23:33.628Z,67.90
2019-04-05T06:24:26.770Z,69.00
2019-04-05T06:25:26.750Z,69.50
2019-04-05T06:26:26.735Z,67.20
2019-04-05T06:27:27.508Z,66.40
2019-04-05T06:28:26.771Z,67.20
2019-04-05T06:29:26.701Z,69.20
2019-04-05T06:30:28.724Z,67.40
2019-04-05T06:31:26.680Z,69.70
2019-04-05T06:32:26.696Z,68.00
2019-04-05T06:33:31.666Z,68.10
2019-04-05T06:34:26.662Z,70.10
2019-04-05T06:35:26.633Z,67.70
2019-04-05T06:36:26.632Z,68.10
2019-04-05T06:37:26.619Z,67.30
2019-04-05T06:38:26.609Z,66.30
2019-04-05T06:39:26.619Z,69.50
2019-04-05T06:40:39.731Z,67.80
2019-04-05T06:41:26.568Z,67.30
2019-04-05T06:42:26.572Z,68.20
2019-04-05T06:43:26.557Z,66.70
2019-04-05T06:44:27.944Z,65.90
2019-04-05T06:45:26.565Z,66.20
2019-04-05T06:46:29.466Z,64.90
2019-04-05T06:47:26.504Z,64.40
2019-04-05T06:48:29.355Z,66.50
2019-04-05T06:49:26.499Z,64.90
2019-04-05T06:50:26.508Z,67.60
2019-04-05T06:51:26.475Z,67.40
2019-04-05T06:52:26.457Z,65.50
2019-04-05T06:53:26.439Z,67.70
2019-04-05T06:54:26.432Z,67.10
2019-04-05T06:55:26.415Z,66.70
2019-04-05T06:56:26.424Z,68.80
2019-04-05T06:57:26.396Z,65.50
2019-04-05T06:58:28.858Z,64.60
2019-04-05T06:59:26.376Z,65.00
2019-04-05T07:00:26.373Z,65.60
2019-04-05T07:01:26.349Z,65.70
2019-04-05T07:02:26.382Z,65.00
2019-04-05T07:03:26.325Z,63.70
2019-04-05T07:04:26.957Z,65.70
2019-04-05T07:05:26.315Z,63.80
2019-04-05T07:06:26.308Z,65.00
2019-04-05T07:07:26.281Z,62.50
2019-04-05T07:08:26.299Z,65.90
2019-04-05T07:09:26.269Z,66.30
2019-04-05T07:10:26.254Z,64.10
2019-04-05T07:11:28.956Z,61.10
2019-04-05T07:12:26.233Z,62.50
2019-04-05T07:13:27.523Z,63.50
2019-04-05T07:14:26.259Z,60.90
2019-04-05T07:15:26.203Z,63.80
2019-04-05T07:16:26.188Z,62.00
2019-04-05T07:17:26.184Z,62.40
2019-04-05T07:18:33.959Z,64.70
2019-04-05T07:19:26.353Z,61.30
2019-04-05T07:20:26.138Z,60.00
2019-04-05T07:21:26.133Z,61.90
2019-04-05T07:22:36.981Z,62.20
2019-04-05T07:23:26.121Z,60.60
2019-04-05T07:24:26.098Z,62.30
2019-04-05T07:25:29.136Z,62.30
2019-04-05T07:26:26.080Z,63.80
2019-04-05T07:27:26.065Z,62.60
2019-04-05T07:28:26.057Z,62.30
2019-04-05T07:29:26.072Z,61.90
2019-04-05T07:30:28.729Z,64.40
2019-04-05T07:31:27.952Z,61.70
2019-04-05T07:32:26.057Z,61.60
2019-04-05T07:33:26.014Z,62.10
2019-04-05T07:34:25.982Z,61.50
2019-04-05T07:35:33.366Z,63.60
2019-04-05T07:36:25.968Z,62.40
2019-04-05T07:37:25.986Z,64.90
2019-04-05T07:38:25.948Z,62.50
2019-04-05T07:39:26.083Z,63.40
2019-04-05T07:40:25.926Z,62.60
2019-04-05T07:41:25.910Z,64.60
2019-04-05T07:42:25.899Z,64.10
2019-04-05T07:43:25.888Z,63.10
2019-04-05T07:44:25.879Z,62.20
2019-04-05T07:45:25.891Z,64.20
2019-04-05T07:46:25.848Z,63.50
2019-04-05T07:47:25.859Z,62.00
2019-04-05T07:48:25.873Z,61.70
2019-04-05T07:49:25.821Z,62.40
2019-04-05T07:50:25.988Z,63.50
2019-04-05T07:51:25.797Z,60.90
2019-04-05T07:52:25.789Z,62.00
2019-04-05T07:53:25.788Z,61.90
2019-04-05T07:54:25.759Z,62.00
2019-04-05T07:55:25.878Z,62.90
2019-04-05T07:56:25.746Z,60.70
2019-04-05T07:57:25.739Z,62.90
2019-04-05T07:58:25.719Z,62.30
2019-04-05T07:59:25.735Z,61.90
2019-04-05T08:00:25.712Z,62.30
2019-04-05T08:01:25.733Z,61.10
2019-04-05T08:02:25.690Z,59.70
2019-04-05T08:03:25.661Z,59.90
2019-04-05T08:04:25.681Z,61.70
2019-04-05T08:05:25.656Z,64.90
2019-04-05T08:06:28.443Z,61.90
2019-04-05T08:07:25.650Z,62.40
2019-04-05T08:08:25.611Z,62.80
2019-04-05T08:09:25.608Z,61.60
2019-04-05T08:10:25.594Z,60.60
2019-04-05T08:11:25.584Z,60.00
2019-04-05T08:12:25.573Z,60.30
2019-04-05T08:13:25.580Z,60.60
2019-04-05T08:14:25.562Z,59.90
2019-04-05T08:15:25.550Z,57.50
2019-04-05T08:16:25.535Z,58.90
2019-04-05T08:17:25.522Z,59.20
2019-04-05T08:18:25.502Z,58.80
2019-04-05T08:19:25.527Z,60.60
2019-04-05T08:20:25.607Z,59.70
2019-04-05T08:21:25.472Z,59.60
2019-04-05T08:22:25.466Z,57.00
2019-04-05T08:23:25.455Z,58.80
2019-04-05T08:24:25.446Z,57.20
2019-04-05T08:25:25.433Z,58.50
2019-04-05T08:26:25.444Z,57.90
2019-04-05T08:27:25.411Z,57.50
2019-04-05T08:28:25.398Z,57.70
2019-04-05T08:29:25.390Z,57.60
2019-04-05T08:30:25.377Z,56.30
2019-04-05T08:31:25.366Z,58.50
2019-04-05T08:32:25.387Z,57.60
2019-04-05T08:33:25.354Z,55.80
2019-04-05T08:34:25.329Z,56.30
2019-04-05T08:35:25.324Z,56.10
2019-04-05T08:36:25.932Z,57.20
2019-04-05T08:37:25.332Z,55.40
2019-04-05T08:38:25.301Z,56.80
2019-04-05T08:39:25.285Z,56.40
2019-04-05T08:40:25.273Z,57.40
2019-04-05T08:41:25.251Z,56.90
2019-04-05T08:42:25.249Z,55.70
2019-04-05T08:43:25.266Z,56.20
2019-04-05T08:44:25.223Z,56.50
2019-04-05T08:46:24.208Z,59.00
2019-04-05T08:47:25.201Z,56.60
2019-04-05T08:48:25.174Z,59.10
2019-04-05T08:49:25.219Z,56.60
2019-04-05T08:50:25.158Z,56.40
2019-04-05T08:51:25.155Z,54.20
2019-04-05T08:52:27.061Z,55.20
2019-04-05T08:53:25.119Z,55.70
2019-04-05T08:54:32.474Z,56.10
2019-04-05T08:55:25.107Z,55.40
2019-04-05T08:56:25.111Z,54.00
2019-04-05T08:57:25.079Z,53.70
2019-04-05T08:58:33.316Z,53.40
2019-04-05T08:59:25.058Z,53.40
2019-04-05T09:00:25.098Z,53.60
2019-04-05T09:01:25.056Z,54.20
2019-04-05T09:02:25.035Z,53.70
2019-04-05T09:03:25.927Z,51.50
2019-04-05T09:04:25.013Z,55.40
2019-04-05T09:05:24.999Z,53.10
2019-04-05T09:06:25.022Z,57.60
2019-04-05T09:07:24.976Z,59.30
2019-04-05T09:08:24.961Z,51.90
2019-04-05T09:09:24.958Z,52.30
2019-04-05T09:10:24.947Z,52.10
2019-04-05T09:11:24.944Z,52.60
2019-04-05T09:12:24.937Z,50.10
2019-04-05T09:13:24.929Z,51.90
2019-04-05T09:14:24.891Z,50.50
2019-04-05T09:15:24.876Z,50.40
2019-04-05T09:16:24.882Z,48.30
2019-04-05T09:17:24.899Z,50.20
2019-04-05T09:18:24.853Z,47.60
2019-04-05T09:19:25.463Z,49.80
2019-04-05T09:20:24.906Z,49.70
2019-04-05T09:21:24.819Z,51.00
2019-04-05T09:22:24.824Z,49.30
2019-04-05T09:23:24.810Z,49.60
2019-04-05T09:24:24.800Z,48.40
2019-04-05T09:25:24.780Z,50.00
2019-04-05T09:26:24.791Z,47.50
2019-04-05T09:27:27.424Z,49.10
2019-04-05T09:28:24.747Z,49.10
2019-04-05T09:29:24.733Z,49.20
2019-04-05T09:30:24.755Z,50.30
2019-04-05T09:31:24.708Z,49.90
2019-04-05T09:32:24.697Z,49.40
2019-04-05T09:33:24.684Z,49.30
2019-04-05T09:34:24.685Z,47.50
2019-04-05T09:35:24.665Z,50.00
2019-04-05T09:36:25.463Z,49.40
2019-04-05T09:37:24.644Z,48.50
2019-04-05T09:38:24.633Z,49.10
2019-04-05T09:39:24.621Z,48.00
2019-04-05T09:40:24.622Z,44.40
2019-04-05T09:41:24.614Z,45.00
2019-04-05T09:42:24.613Z,45.30
2019-04-05T09:43:24.632Z,45.90
2019-04-05T09:44:24.574Z,47.40
2019-04-05T09:45:24.553Z,45.60
2019-04-05T09:46:24.537Z,47.90
2019-04-05T09:47:24.531Z,47.00
2019-04-05T09:48:24.734Z,46.50
2019-04-05T09:49:36.109Z,46.10
2019-04-05T09:50:24.513Z,44.10
2019-04-05T09:51:24.488Z,47.20
2019-04-05T09:52:24.490Z,44.40
2019-04-05T09:53:24.466Z,44.10
2019-04-05T09:54:24.496Z,42.30
2019-04-05T09:55:24.446Z,43.40
2019-04-05T09:56:24.435Z,41.80
2019-04-05T09:57:24.434Z,42.10
2019-04-05T09:58:24.417Z,42.30
2019-04-05T09:59:24.395Z,42.50
2019-04-05T10:00:24.435Z,41.80
2019-04-05T10:01:24.421Z,42.40
2019-04-05T10:02:24.367Z,43.20
2019-04-05T10:03:24.359Z,44.80
2019-04-05T10:04:24.355Z,44.30
2019-04-05T10:05:24.336Z,43.30
2019-04-05T10:06:24.365Z,41.90
2019-04-05T10:07:24.314Z,43.10
2019-04-05T10:08:24.298Z,43.70
2019-04-05T10:09:24.285Z,43.30
2019-04-05T10:10:24.304Z,43.00
2019-04-05T10:11:24.271Z,42.10
2019-04-05T10:12:24.275Z,41.70
2019-04-05T10:13:24.912Z,42.90
2019-04-05T10:14:24.241Z,42.30
2019-04-05T10:15:24.216Z,41.80
2019-04-05T10:16:24.214Z,42.50
2019-04-05T10:17:24.239Z,42.40
2019-04-05T10:18:24.188Z,42.20
2019-04-05T10:19:24.178Z,41.30
2019-04-05T10:21:23.155Z,40.50
2019-04-05T10:22:24.147Z,40.10
2019-04-05T10:23:24.162Z,40.50
2019-04-05T10:24:24.911Z,39.50
2019-04-05T10:25:24.118Z,41.40
2019-04-05T10:26:24.112Z,42.10
2019-04-05T10:27:24.094Z,42.70
2019-04-05T10:28:24.081Z,41.10
2019-04-05T10:29:24.118Z,40.60
2019-04-05T10:30:24.058Z,39.70
2019-04-05T10:31:24.052Z,40.40
2019-04-05T10:32:24.047Z,39.20
2019-04-05T10:33:24.070Z,39.60
2019-04-05T10:34:24.008Z,40.30
2019-04-05T10:35:24.045Z,38.90
2019-04-05T10:36:24.036Z,39.20
2019-04-05T10:37:23.985Z,41.00
2019-04-05T10:38:23.967Z,39.40
2019-04-05T10:39:23.965Z,39.20
2019-04-05T10:40:23.944Z,42.20
2019-04-05T10:41:23.973Z,40.00
2019-04-05T10:42:23.969Z,40.40
2019-04-05T10:43:23.916Z,38.70
2019-04-05T10:44:23.903Z,42.10
2019-04-05T10:45:23.905Z,41.60
2019-04-05T10:46:23.875Z,42.70
2019-04-05T10:47:23.951Z,45.00
2019-04-05T10:48:23.860Z,44.20
2019-04-05T10:49:24.404Z,46.00
2019-04-05T10:50:26.413Z,44.70
2019-04-05T10:51:26.405Z,43.00
2019-04-05T10:52:23.885Z,43.20
2019-04-05T10:53:23.810Z,44.90
2019-04-05T10:54:24.406Z,42.40
2019-04-05T10:55:23.781Z,40.40
2019-04-05T10:56:23.773Z,41.70
2019-04-05T10:57:23.757Z,43.50
2019-04-05T10:58:23.778Z,42.50
2019-04-05T11:01:22.709Z,40.70
2019-04-05T11:02:24.401Z,42.70
2019-04-05T11:03:26.438Z,42.80
2019-04-05T11:04:23.712Z,42.00
2019-04-05T11:05:23.703Z,40.90
2019-04-05T11:06:23.661Z,39.60
2019-04-05T11:07:23.651Z,41.20
2019-04-05T11:08:23.639Z,40.30
2019-04-05T11:09:23.628Z,39.50
2019-04-05T11:10:26.406Z,40.10
2019-04-05T11:11:23.615Z,40.40
2019-04-05T11:12:23.595Z,40.00
2019-04-05T11:13:23.586Z,40.10
2019-04-05T11:14:23.573Z,40.80
2019-04-05T11:15:25.467Z,39.20
2019-04-05T11:16:23.558Z,38.10
2019-04-05T11:17:24.399Z,38.60
2019-04-05T11:18:23.534Z,38.70
2019-04-05T11:19:23.530Z,37.90
2019-04-05T11:20:26.397Z,37.80
2019-04-05T11:21:23.498Z,38.40
2019-04-05T11:22:23.548Z,39.40
2019-04-05T11:23:23.506Z,38.60
2019-04-05T11:24:23.463Z,41.30
2019-04-05T11:25:23.454Z,39.90
2019-04-05T11:26:23.445Z,40.70
2019-04-05T11:27:23.431Z,39.60
2019-04-05T11:28:23.423Z,39.90
2019-04-05T11:29:23.431Z,38.50
2019-04-05T11:30:23.401Z,40.30
2019-04-05T11:31:23.397Z,40.30
2019-04-05T11:32:23.379Z,38.50
2019-04-05T11:33:23.361Z,39.00
2019-04-05T11:34:23.437Z,39.50
2019-04-05T11:35:23.350Z,37.40
2019-04-05T11:36:25.899Z,38.30
2019-04-05T11:37:23.319Z,37.60
2019-04-05T11:38:25.903Z,37.30
2019-04-05T11:39:23.301Z,37.70
2019-04-05T11:40:24.219Z,40.70
2019-04-05T11:41:23.307Z,37.70
2019-04-05T11:42:25.895Z,38.40
2019-04-05T11:43:26.232Z,38.50
2019-04-05T11:44:23.250Z,38.90
2019-04-05T11:45:23.230Z,40.10
2019-04-05T11:46:23.463Z,39.70
2019-04-05T11:47:23.215Z,39.20
2019-04-05T11:48:23.202Z,40.40
2019-04-05T11:49:23.185Z,39.30
2019-04-05T11:50:33.920Z,39.30
2019-04-05T11:51:23.171Z,39.50
2019-04-05T11:52:23.180Z,38.20
2019-04-05T11:53:23.139Z,38.20
2019-04-05T11:54:23.136Z,38.60
2019-04-05T11:55:23.125Z,39.30
2019-04-05T11:56:23.109Z,38.20
2019-04-05T11:57:23.100Z,39.70
2019-04-05T11:58:23.120Z,39.00
2019-04-05T11:59:23.077Z,40.00
2019-04-05T12:00:23.929Z,40.10
2019-04-05T12:01:23.666Z,39.60
2019-04-05T12:02:23.053Z,38.10
2019-04-05T12:03:23.028Z,37.60
2019-04-05T12:04:23.020Z,39.20
2019-04-05T12:05:26.850Z,38.30
2019-04-05T12:06:22.997Z,36.20
2019-04-05T12:07:26.281Z,35.90
2019-04-05T12:08:22.984Z,36.70
2019-04-05T12:09:22.971Z,36.40
2019-04-05T12:10:22.959Z,35.40
2019-04-05T12:11:23.903Z,36.50
2019-04-05T12:12:25.504Z,36.90
2019-04-05T12:13:23.461Z,35.00
2019-04-05T12:14:30.022Z,34.40
2019-04-05T12:15:22.937Z,33.80
2019-04-05T12:16:22.894Z,34.90
2019-04-05T12:17:22.877Z,35.00
2019-04-05T12:18:22.882Z,33.90
2019-04-05T12:19:22.859Z,35.60
2019-04-05T12:20:22.858Z,35.50
2019-04-05T12:21:22.874Z,33.70
2019-04-05T12:22:22.828Z,35.60
2019-04-05T12:23:22.808Z,35.20
2019-04-05T12:24:22.807Z,35.00
2019-04-05T12:25:22.824Z,35.30
2019-04-05T12:26:22.781Z,36.30
2019-04-05T12:27:22.787Z,35.50
2019-04-05T12:28:22.764Z,35.20
2019-04-05T12:29:22.748Z,36.30
2019-04-05T12:30:22.730Z,35.20
2019-04-05T12:31:22.753Z,33.80
2019-04-05T12:32:33.038Z,36.20
2019-04-05T12:33:22.721Z,34.80
2019-04-05T12:34:22.697Z,34.70
2019-04-05T12:35:22.680Z,34.10
2019-04-05T12:36:22.790Z,35.50
2019-04-05T12:37:22.664Z,35.90
2019-04-05T12:38:28.342Z,35.10
2019-04-05T12:39:22.672Z,37.00
2019-04-05T12:40:22.629Z,35.80
2019-04-05T12:41:22.631Z,36.30
2019-04-05T12:42:22.606Z,37.50
2019-04-05T12:43:22.603Z,36.30
2019-04-05T12:44:22.615Z,35.10
2019-04-05T12:45:22.588Z,36.50
2019-04-05T12:46:22.560Z,35.20
2019-04-05T12:47:22.558Z,35.20
2019-04-05T12:48:22.553Z,35.50
2019-04-05T12:49:22.533Z,34.80
2019-04-05T12:50:22.549Z,34.80
2019-04-05T12:51:22.509Z,34.80
2019-04-05T12:52:25.109Z,35.00
2019-04-05T12:53:22.490Z,33.90
2019-04-05T12:54:22.479Z,34.20
2019-04-05T12:55:24.090Z,33.60
2019-04-05T12:56:24.414Z,33.60
2019-04-05T12:57:22.515Z,33.20
2019-04-05T12:58:25.639Z,33.40
2019-04-05T12:59:25.188Z,32.00
2019-04-05T13:00:23.592Z,33.30
2019-04-05T13:01:22.404Z,33.50
2019-04-05T13:02:32.942Z,33.50